Time;durP1;ratioP1;P1;durP2;ratioP2;P2;SDS_P1;SDS_P2;PMS_P1;PMS_P2;Temp;Humidity;BMP_temperature;BMP_pressure;BME280_temperature;BME280_humidity;BME280_pressure;Samples;Min_cycle;Max_cycle;Signal;HPM_P1;HPM_P2
2022/03/13 00:02:02;;;;;;;7.70;6.90;;;3.40;80.40;;;;;;5045798;28;20224;-85
2022/03/13 00:04:30;;;;;;;14.95;8.45;;;3.40;80.50;;;;;;5046841;28;20213;-84
2022/03/13 00:06:58;;;;;;;10.18;6.88;;;3.30;80.90;;;;;;5046571;28;20225;-83
2022/03/13 00:09:26;;;;;;;13.52;9.40;;;3.20;81.00;;;;;;5046763;28;20225;-82
2022/03/13 00:11:56;;;;;;;8.63;7.25;;;3.20;80.90;;;;;;5046345;28;20256;-84
2022/03/13 00:14:24;;;;;;;9.88;7.65;;;3.20;81.00;;;;;;5047291;28;20202;-85
2022/03/13 00:16:52;;;;;;;8.40;7.25;;;3.10;81.30;;;;;;5046452;28;20253;-83
2022/03/13 00:19:21;;;;;;;7.90;7.10;;;3.10;81.30;;;;;;5046922;28;20209;-83
2022/03/13 00:21:52;;;;;;;9.93;7.20;;;3.00;81.40;;;;;;5046838;28;20765;-84
2022/03/13 00:24:22;;;;;;;9.57;7.25;;;3.00;81.50;;;;;;5047249;28;20312;-84
2022/03/13 00:26:52;;;;;;;8.98;6.75;;;3.00;81.60;;;;;;5046950;28;20689;-84
2022/03/13 00:29:21;;;;;;;9.32;7.10;;;2.90;81.80;;;;;;5046916;28;20266;-84
2022/03/13 00:31:49;;;;;;;8.20;7.13;;;2.90;81.80;;;;;;5046089;28;20211;-84
2022/03/13 00:34:17;;;;;;;10.45;7.20;;;2.90;81.80;;;;;;5046180;28;20202;-84
2022/03/13 00:36:45;;;;;;;7.95;6.35;;;2.80;81.80;;;;;;5047196;28;20736;-85
2022/03/13 00:39:13;;;;;;;10.73;7.65;;;2.80;82.00;;;;;;5045935;28;20279;-85
2022/03/13 00:41:41;;;;;;;8.60;6.40;;;2.80;82.10;;;;;;5047085;28;20222;-85
2022/03/13 00:44:09;;;;;;;7.72;6.93;;;2.80;82.00;;;;;;5047216;28;20222;-84
2022/03/13 00:46:38;;;;;;;8.00;6.85;;;2.80;82.00;;;;;;5046593;28;20309;-83
2022/03/13 00:49:07;;;;;;;8.68;7.25;;;2.70;82.10;;;;;;5048323;28;20862;-84
2022/03/13 00:51:34;;;;;;;9.45;7.63;;;2.70;82.30;;;;;;5051009;28;20292;-84
2022/03/13 00:54:03;;;;;;;8.13;6.88;;;2.60;82.60;;;;;;5071828;28;20272;-83
2022/03/13 00:56:31;;;;;;;10.70;7.55;;;2.60;82.50;;;;;;5049400;28;20233;-83
2022/03/13 00:59:00;;;;;;;10.60;7.22;;;2.60;82.40;;;;;;5047106;28;20200;-84
2022/03/13 01:01:27;;;;;;;9.02;7.05;;;2.60;82.50;;;;;;5046786;28;20202;-83
2022/03/13 01:03:57;;;;;;;10.68;7.03;;;2.50;82.50;;;;;;5047638;28;20220;-84
2022/03/13 01:06:25;;;;;;;9.85;7.05;;;2.50;82.50;;;;;;5047543;28;20257;-84
2022/03/13 01:08:54;;;;;;;10.98;7.68;;;2.50;82.60;;;;;;5046112;28;20687;-84
2022/03/13 01:11:22;;;;;;;8.27;6.20;;;2.50;82.70;;;;;;5045635;28;20225;-85
2022/03/13 01:13:51;;;;;;;10.23;7.45;;;2.40;83.70;;;;;;5044575;28;20248;-84
2022/03/13 01:16:21;;;;;;;9.88;7.38;;;2.40;83.00;;;;;;5045591;28;20222;-84
2022/03/13 01:18:51;;;;;;;7.68;6.88;;;2.30;82.90;;;;;;5045457;28;20250;-83
2022/03/13 01:21:20;;;;;;;10.73;8.18;;;2.30;83.00;;;;;;5045883;28;20273;-85
2022/03/13 01:24:17;;;;;;;8.45;7.32;;;2.30;83.20;;;;;;5045700;28;20304;-85
2022/03/13 01:26:49;;;;;;;10.13;6.80;;;2.20;83.30;;;;;;5045457;28;20228;-84
2022/03/13 01:29:17;;;;;;;10.23;7.50;;;2.10;83.50;;;;;;5044681;28;20220;-83
2022/03/13 01:31:48;;;;;;;9.52;6.00;;;2.10;83.60;;;;;;5044582;28;20201;-83
2022/03/13 01:34:38;;;;;;;9.40;7.18;;;2.10;83.80;;;;;;5044338;28;20268;-84
2022/03/13 01:37:09;;;;;;;8.77;6.95;;;2.10;83.70;;;;;;5042933;28;20301;-82
2022/03/13 01:39:37;;;;;;;8.52;7.05;;;2.10;84.00;;;;;;5043039;28;20206;-84
2022/03/13 01:42:06;;;;;;;12.45;8.07;;;2.00;83.90;;;;;;5044048;28;20270;-83
2022/03/13 01:44:34;;;;;;;10.57;7.00;;;2.00;84.00;;;;;;5046772;28;20224;-84
2022/03/13 01:47:02;;;;;;;11.45;8.13;;;2.00;83.60;;;;;;5045820;28;20217;-84
2022/03/13 01:49:30;;;;;;;9.45;7.65;;;1.90;83.60;;;;;;5046301;28;20202;-84
2022/03/13 01:51:58;;;;;;;9.48;6.57;;;1.80;83.80;;;;;;5046177;28;20202;-83
2022/03/13 01:54:28;;;;;;;10.75;7.97;;;1.80;84.50;;;;;;5046289;28;20193;-84
2022/03/13 01:56:55;;;;;;;10.38;7.32;;;1.80;83.80;;;;;;5047477;28;20780;-84
2022/03/13 01:59:23;;;;;;;10.20;6.97;;;1.80;84.00;;;;;;5049014;28;20232;-84
2022/03/13 02:01:52;;;;;;;11.35;7.65;;;1.80;84.10;;;;;;5064235;28;20209;-84
2022/03/13 02:04:25;;;;;;;8.00;6.38;;;1.80;84.00;;;;;;5059659;28;20234;-84
2022/03/13 02:06:55;;;;;;;7.35;6.60;;;1.70;84.00;;;;;;5046568;28;20218;-83
2022/03/13 02:09:23;;;;;;;10.45;7.30;;;1.80;84.10;;;;;;5045965;28;20194;-83
2022/03/13 02:11:53;;;;;;;15.25;7.75;;;1.80;83.80;;;;;;5045230;28;20202;-84
2022/03/13 02:14:24;;;;;;;7.53;6.65;;;1.70;84.10;;;;;;5045418;28;20243;-85
2022/03/13 02:16:53;;;;;;;9.52;6.45;;;1.70;84.40;;;;;;5045703;28;20221;-84
2022/03/13 02:19:22;;;;;;;8.60;7.45;;;1.70;84.60;;;;;;5046045;28;20207;-85
2022/03/13 02:21:52;;;;;;;9.55;8.15;;;1.60;84.30;;;;;;5045922;28;20208;-84
2022/03/13 02:24:25;;;;;;;10.77;7.60;;;1.60;84.50;;;;;;5045686;28;20217;-85
2022/03/13 02:27:00;;;;;;;9.55;8.48;;;1.60;84.30;;;;;;5046283;28;20866;-84
2022/03/13 02:29:29;;;;;;;10.40;7.63;;;1.50;84.40;;;;;;5051525;28;20237;-83
2022/03/13 02:31:59;;;;;;;9.82;7.60;;;1.40;84.60;;;;;;5064089;28;20248;-84
2022/03/13 02:34:27;;;;;;;8.75;6.80;;;1.30;85.00;;;;;;5063964;28;20225;-83
2022/03/13 02:37:00;;;;;;;11.30;8.15;;;1.40;85.00;;;;;;5064846;28;20277;-83
2022/03/13 02:39:35;;;;;;;10.80;8.15;;;1.40;85.30;;;;;;5064910;28;20221;-84
2022/03/13 02:42:06;;;;;;;11.85;7.53;;;1.30;85.00;;;;;;5052936;28;20278;-82
2022/03/13 02:44:34;;;;;;;9.20;7.35;;;1.40;85.10;;;;;;5045662;28;20245;-84
2022/03/13 02:47:06;;;;;;;8.18;7.47;;;1.30;85.10;;;;;;5045230;28;20222;-84
2022/03/13 02:49:35;;;;;;;11.07;7.70;;;1.30;84.90;;;;;;5045772;28;20227;-83
2022/03/13 02:52:05;;;;;;;12.13;7.63;;;1.30;85.00;;;;;;5045966;28;20213;-83
2022/03/13 02:54:35;;;;;;;12.00;8.25;;;1.30;85.10;;;;;;5047152;28;20194;-83
2022/03/13 02:57:03;;;;;;;9.50;6.60;;;1.40;85.20;;;;;;5047909;28;20257;-83
2022/03/13 02:59:31;;;;;;;9.73;7.85;;;1.30;85.20;;;;;;5047792;28;20206;-84
2022/03/13 03:02:02;;;;;;;11.20;7.53;;;1.30;85.40;;;;;;5049612;28;20218;-84
2022/03/13 03:04:30;;;;;;;15.05;8.18;;;1.30;85.60;;;;;;5048057;28;22157;-84
2022/03/13 03:07:01;;;;;;;11.20;8.18;;;1.20;85.60;;;;;;5046574;28;20610;-84
2022/03/13 03:09:31;;;;;;;9.68;7.53;;;1.30;85.80;;;;;;5047341;28;20217;-84
2022/03/13 03:12:04;;;;;;;9.80;7.60;;;1.30;85.80;;;;;;5053739;28;20204;-83
2022/03/13 03:14:34;;;;;;;12.13;8.20;;;1.30;86.00;;;;;;5047138;28;20202;-83
2022/03/13 03:17:02;;;;;;;8.52;6.88;;;1.30;86.00;;;;;;5044326;28;20301;-83
2022/03/13 03:19:30;;;;;;;12.70;8.80;;;1.30;86.10;;;;;;5043408;28;20202;-85
2022/03/13 03:21:59;;;;;;;7.85;6.97;;;1.20;86.20;;;;;;5044105;28;20264;-83
2022/03/13 03:24:27;;;;;;;9.50;8.40;;;1.20;86.20;;;;;;5042677;28;20194;-83
2022/03/13 03:26:55;;;;;;;10.93;7.95;;;1.20;86.60;;;;;;5044302;28;20252;-84
2022/03/13 03:29:26;;;;;;;10.07;7.93;;;1.20;86.70;;;;;;5043922;28;20205;-84
2022/03/13 03:31:56;;;;;;;11.75;8.82;;;1.20;86.80;;;;;;5043544;28;20272;-84
2022/03/13 03:34:27;;;;;;;11.68;8.65;;;1.20;86.90;;;;;;5045090;28;20197;-84
2022/03/13 03:36:58;;;;;;;10.43;8.88;;;1.20;86.80;;;;;;5043828;28;20232;-84
2022/03/13 03:39:28;;;;;;;13.02;9.20;;;1.20;86.90;;;;;;5044435;28;20241;-83
2022/03/13 03:41:56;;;;;;;11.10;9.05;;;1.10;86.80;;;;;;5047357;28;20236;-85
2022/03/13 03:44:26;;;;;;;15.45;8.95;;;1.10;87.70;;;;;;5047447;28;20712;-84
2022/03/13 03:46:55;;;;;;;10.27;8.50;;;1.10;87.00;;;;;;5048864;28;20221;-83
2022/03/13 03:49:23;;;;;;;11.73;8.80;;;1.00;87.10;;;;;;5046883;28;20198;-85
2022/03/13 03:51:51;;;;;;;11.57;8.93;;;1.00;87.10;;;;;;5047496;28;20201;-84
2022/03/13 03:54:19;;;;;;;13.98;9.23;;;1.00;87.30;;;;;;5051187;28;20292;-84
2022/03/13 03:56:47;;;;;;;15.50;9.20;;;1.00;87.30;;;;;;5044924;28;20228;-84
2022/03/13 03:59:19;;;;;;;11.95;8.25;;;1.00;87.30;;;;;;5044710;28;20212;-84
2022/03/13 04:01:49;;;;;;;15.00;9.57;;;0.90;87.40;;;;;;5045273;28;20304;-83
2022/03/13 04:04:18;;;;;;;12.10;8.77;;;0.90;87.40;;;;;;5044774;28;20286;-84
2022/03/13 04:06:46;;;;;;;13.77;9.68;;;0.90;87.40;;;;;;5044562;28;20226;-85
2022/03/13 04:09:14;;;;;;;12.57;9.57;;;0.90;87.70;;;;;;5044712;28;20336;-83
2022/03/13 04:11:46;;;;;;;14.65;9.20;;;0.90;87.80;;;;;;5046408;28;20221;-84
2022/03/13 04:14:14;;;;;;;15.15;9.57;;;0.90;88.00;;;;;;5045429;28;20228;-83
2022/03/13 04:16:42;;;;;;;17.00;9.02;;;0.80;87.90;;;;;;5044300;28;20301;-84
2022/03/13 04:19:12;;;;;;;16.10;8.70;;;0.80;88.00;;;;;;5043678;28;20252;-84
2022/03/13 04:21:41;;;;;;;13.50;8.68;;;0.80;88.40;;;;;;5067561;28;20766;-84
2022/03/13 04:24:11;;;;;;;12.40;8.55;;;0.70;88.40;;;;;;5050849;28;20249;-84
2022/03/13 04:26:40;;;;;;;14.32;8.18;;;0.70;88.50;;;;;;5045692;28;20237;-84
2022/03/13 04:29:09;;;;;;;12.15;8.75;;;0.60;88.60;;;;;;5053466;28;20288;-84
2022/03/13 04:31:40;;;;;;;18.67;9.00;;;0.60;88.70;;;;;;5047499;28;20178;-84
2022/03/13 04:34:17;;;;;;;14.68;9.93;;;0.60;88.60;;;;;;5048367;28;20193;-84
2022/03/13 04:36:46;;;;;;;12.10;8.60;;;0.50;88.40;;;;;;5045498;28;20222;-84
2022/03/13 04:39:15;;;;;;;11.50;8.63;;;0.60;89.10;;;;;;5045757;28;20212;-84
2022/03/13 04:41:43;;;;;;;11.07;9.52;;;0.50;88.40;;;;;;5045966;28;20201;-83
2022/03/13 04:44:14;;;;;;;14.90;9.43;;;0.50;88.60;;;;;;5045688;28;20190;-83
2022/03/13 04:46:42;;;;;;;14.73;9.90;;;0.50;88.60;;;;;;5045370;28;20748;-83
2022/03/13 04:49:10;;;;;;;11.38;9.23;;;0.50;88.60;;;;;;5048995;28;20327;-83
2022/03/13 04:51:40;;;;;;;12.48;8.93;;;0.50;88.60;;;;;;5049674;28;20790;-84
2022/03/13 04:54:08;;;;;;;12.27;9.85;;;0.50;88.80;;;;;;5049826;28;20661;-84
2022/03/13 04:56:36;;;;;;;17.95;10.05;;;0.50;88.70;;;;;;5050539;28;20304;-84
2022/03/13 04:59:07;;;;;;;11.07;9.18;;;0.50;88.80;;;;;;5050093;28;20228;-83
2022/03/13 05:01:35;;;;;;;13.15;8.70;;;0.40;88.70;;;;;;5049128;28;20210;-83
2022/03/13 05:04:03;;;;;;;12.95;9.45;;;0.40;88.80;;;;;;5050817;28;20255;-84
2022/03/13 05:06:31;;;;;;;13.25;9.18;;;0.50;88.90;;;;;;5050416;28;20222;-83
2022/03/13 05:09:00;;;;;;;14.27;9.38;;;0.50;88.90;;;;;;5053894;28;20202;-84
2022/03/13 05:11:28;;;;;;;11.25;8.45;;;0.50;88.90;;;;;;5047263;28;20247;-84
2022/03/13 05:13:56;;;;;;;15.00;9.45;;;0.40;89.50;;;;;;5047854;28;20190;-84
2022/03/13 05:16:24;;;;;;;13.70;8.88;;;0.40;89.00;;;;;;5049174;28;20308;-83
2022/03/13 05:18:52;;;;;;;15.20;9.18;;;0.40;89.00;;;;;;5049142;28;20273;-84
2022/03/13 05:21:20;;;;;;;13.18;8.50;;;0.40;89.00;;;;;;5048734;28;20839;-84
2022/03/13 05:23:48;;;;;;;14.40;9.30;;;0.30;89.00;;;;;;5056457;28;20243;-82
2022/03/13 05:26:17;;;;;;;14.07;8.30;;;0.30;89.20;;;;;;5056392;28;20243;-84
2022/03/13 05:28:45;;;;;;;13.80;9.73;;;0.30;89.20;;;;;;5052414;28;20194;-84
2022/03/13 05:31:13;;;;;;;13.00;9.38;;;0.30;89.20;;;;;;5070530;28;20193;-84
2022/03/13 05:33:41;;;;;;;12.65;9.75;;;0.30;89.30;;;;;;5054671;28;20214;-84
2022/03/13 05:36:09;;;;;;;10.80;9.25;;;0.20;89.10;;;;;;5050097;28;20251;-84
2022/03/13 05:38:37;;;;;;;13.05;8.93;;;0.20;89.20;;;;;;5048383;28;20190;-84
2022/03/13 05:41:06;;;;;;;12.18;8.77;;;0.20;89.40;;;;;;5048512;28;20252;-83
2022/03/13 05:43:38;;;;;;;16.35;9.52;;;0.20;89.30;;;;;;5048123;28;20344;-84
2022/03/13 05:46:06;;;;;;;12.75;8.55;;;0.20;89.30;;;;;;5048773;28;20237;-85
2022/03/13 05:48:34;;;;;;;10.65;7.78;;;0.20;89.30;;;;;;5048137;28;20836;-84
2022/03/13 05:51:02;;;;;;;12.15;9.40;;;0.20;89.20;;;;;;5056380;28;20193;-83
2022/03/13 05:53:30;;;;;;;14.98;9.30;;;0.20;89.30;;;;;;5067008;28;20236;-83
2022/03/13 05:55:58;;;;;;;12.57;8.45;;;0.30;88.90;;;;;;5066160;28;20304;-83
2022/03/13 05:58:26;;;;;;;12.85;9.35;;;0.20;89.30;;;;;;5067102;28;20193;-84
2022/03/13 06:01:04;;;;;;;11.68;9.02;;;0.20;89.40;;;;;;5067534;28;20193;-85
2022/03/13 06:03:33;;;;;;;12.50;8.90;;;0.20;89.10;;;;;;5066534;28;20205;-85
2022/03/13 06:06:02;;;;;;;12.82;10.88;;;0.20;88.90;;;;;;5065974;28;20221;-83
2022/03/13 06:08:30;;;;;;;11.63;8.60;;;0.20;88.90;;;;;;5068017;28;20276;-85
2022/03/13 06:10:58;;;;;;;11.98;9.05;;;0.20;88.80;;;;;;5069370;28;20259;-85
2022/03/13 06:13:27;;;;;;;12.18;7.97;;;0.30;88.70;;;;;;5068425;28;20201;-86
2022/03/13 06:15:58;;;;;;;10.68;8.07;;;0.40;88.40;;;;;;5069368;28;20289;-85
2022/03/13 06:18:27;;;;;;;9.73;8.20;;;0.50;88.30;;;;;;5071503;28;20268;-89
2022/03/13 06:20:55;;;;;;;11.55;8.82;;;0.50;88.00;;;;;;5070380;28;20750;-87
2022/03/13 06:23:24;;;;;;;17.13;8.95;;;0.50;87.90;;;;;;5069333;28;20826;-86
2022/03/13 06:25:52;;;;;;;11.38;9.00;;;0.50;87.60;;;;;;5067784;28;20231;-85
2022/03/13 06:28:21;;;;;;;9.63;8.45;;;0.50;87.60;;;;;;5071049;28;20217;-87
2022/03/13 06:30:49;;;;;;;9.77;7.90;;;0.60;87.90;;;;;;5071233;28;20305;-88
2022/03/13 06:33:18;;;;;;;14.90;9.20;;;0.60;87.50;;;;;;5072367;28;20201;-85
2022/03/13 06:35:46;;;;;;;13.07;8.70;;;0.70;87.60;;;;;;5073494;28;20908;-87
2022/03/13 06:38:16;;;;;;;12.77;9.00;;;0.80;87.00;;;;;;5073197;28;20319;-87
2022/03/13 06:40:45;;;;;;;12.20;8.00;;;0.80;87.00;;;;;;5087946;28;20342;-86
2022/03/13 06:43:13;;;;;;;15.23;8.98;;;0.80;87.00;;;;;;5084412;28;20730;-87
2022/03/13 06:45:41;;;;;;;13.43;9.35;;;0.90;86.80;;;;;;5072693;28;20220;-88
2022/03/13 06:48:10;;;;;;;12.43;8.15;;;0.90;86.70;;;;;;5073207;28;20217;-89
2022/03/13 06:50:40;;;;;;;15.27;8.82;;;0.90;86.50;;;;;;5075367;28;20293;-89
2022/03/13 06:53:10;;;;;;;14.30;8.88;;;1.00;86.30;;;;;;5073116;28;20300;-90
2022/03/13 06:55:38;;;;;;;10.10;7.75;;;1.00;86.00;;;;;;5072474;28;20213;-88
2022/03/13 06:58:07;;;;;;;12.18;8.75;;;1.10;85.90;;;;;;5078511;28;20736;-89
2022/03/13 07:00:35;;;;;;;14.77;8.40;;;1.10;85.50;;;;;;5076823;28;20232;-89
2022/03/13 07:03:03;;;;;;;11.23;7.70;;;1.20;85.50;;;;;;5077595;28;20423;-88
2022/03/13 07:05:31;;;;;;;9.13;7.15;;;1.20;85.30;;;;;;5076808;28;20284;-89
2022/03/13 07:08:00;;;;;;;8.52;7.30;;;1.30;85.50;;;;;;5078418;28;20247;-88
2022/03/13 07:10:29;;;;;;;12.93;8.82;;;1.30;85.40;;;;;;5078754;28;20197;-93
2022/03/13 07:12:57;;;;;;;10.00;8.00;;;1.40;84.90;;;;;;5077893;28;20592;-90
2022/03/13 07:15:31;;;;;;;8.32;6.93;;;1.50;84.80;;;;;;5079033;28;20197;-91
2022/03/13 07:18:00;;;;;;;12.38;8.10;;;1.50;84.90;;;;;;5077981;28;20812;-89
2022/03/13 07:20:29;;;;;;;12.95;8.02;;;1.60;84.80;;;;;;5074710;28;20436;-86
2022/03/13 07:22:57;;;;;;;12.23;8.57;;;1.70;84.60;;;;;;5070135;28;20233;-86
2022/03/13 07:25:27;;;;;;;11.55;8.27;;;1.70;84.40;;;;;;5070522;28;20201;-86
2022/03/13 07:27:54;;;;;;;10.25;8.30;;;1.80;84.20;;;;;;5071063;28;20868;-86
2022/03/13 07:30:22;;;;;;;18.70;8.02;;;1.80;84.10;;;;;;5071635;28;20200;-86
2022/03/13 07:32:50;;;;;;;9.55;7.93;;;1.90;84.20;;;;;;5072460;28;20197;-88
2022/03/13 07:35:18;;;;;;;11.32;9.00;;;2.00;83.80;;;;;;5072541;28;20269;-86
2022/03/13 07:37:47;;;;;;;15.07;8.25;;;2.00;83.60;;;;;;5068558;28;20812;-86
2022/03/13 07:40:16;;;;;;;8.07;7.28;;;2.10;83.60;;;;;;5068013;28;20185;-86
2022/03/13 07:42:45;;;;;;;12.32;6.95;;;2.10;83.50;;;;;;5069097;28;20199;-85
2022/03/13 07:45:13;;;;;;;8.38;6.40;;;2.10;83.00;;;;;;5067899;28;20213;-86
2022/03/13 07:47:41;;;;;;;14.27;8.23;;;2.20;83.10;;;;;;5066391;28;20311;-87
2022/03/13 07:50:10;;;;;;;13.88;8.20;;;2.30;83.40;;;;;;5072759;28;20199;-88
2022/03/13 07:52:39;;;;;;;9.43;7.18;;;2.30;82.40;;;;;;5075503;28;20197;-87
2022/03/13 07:55:08;;;;;;;13.13;7.82;;;2.40;82.20;;;;;;5072277;28;20299;-87
2022/03/13 07:57:37;;;;;;;8.80;7.18;;;2.40;82.10;;;;;;5072091;28;20197;-89
2022/03/13 08:00:12;;;;;;;10.80;8.02;;;2.40;82.00;;;;;;5070769;28;20185;-87
2022/03/13 08:02:44;;;;;;;11.25;7.45;;;2.50;82.10;;;;;;5070234;28;20209;-86
2022/03/13 08:05:13;;;;;;;14.15;8.43;;;2.70;81.60;;;;;;5073894;28;20219;-84
2022/03/13 08:07:41;;;;;;;10.63;7.60;;;2.80;81.30;;;;;;5072325;28;20213;-86
2022/03/13 08:10:10;;;;;;;10.02;7.90;;;2.90;81.00;;;;;;5068569;28;20245;-85
2022/03/13 08:12:39;;;;;;;9.73;7.18;;;2.90;80.80;;;;;;5068706;28;20200;-90
2022/03/13 08:15:08;;;;;;;9.35;6.90;;;3.00;80.80;;;;;;5067009;28;20232;-87
2022/03/13 08:17:38;;;;;;;11.82;7.32;;;3.10;81.60;;;;;;5066599;28;20213;-85
2022/03/13 08:20:08;;;;;;;11.15;7.93;;;3.20;80.90;;;;;;5073894;28;20891;-87
2022/03/13 08:22:36;;;;;;;8.40;7.43;;;3.30;80.90;;;;;;5089000;28;20235;-86
2022/03/13 08:25:06;;;;;;;11.13;7.68;;;3.40;81.40;;;;;;5092747;28;20287;-88
2022/03/13 08:27:35;;;;;;;10.15;8.02;;;3.50;80.80;;;;;;5086825;28;20275;-89
2022/03/13 08:30:04;;;;;;;11.38;7.68;;;3.50;80.50;;;;;;5093348;28;20200;-89
2022/03/13 08:32:32;;;;;;;9.95;7.45;;;3.50;80.30;;;;;;5092491;28;20257;-88
2022/03/13 08:35:02;;;;;;;11.02;8.65;;;3.60;80.00;;;;;;5091063;28;20239;-88
2022/03/13 08:37:30;;;;;;;11.82;8.35;;;3.70;79.90;;;;;;5094639;28;20218;-88
2022/03/13 08:39:58;;;;;;;10.40;7.32;;;3.80;79.50;;;;;;5094942;28;20667;-88
2022/03/13 08:42:28;;;;;;;9.25;7.53;;;3.80;79.20;;;;;;5079393;28;20185;-91
2022/03/13 08:44:56;;;;;;;8.63;7.05;;;3.80;79.50;;;;;;5078106;28;20300;-90
2022/03/13 08:47:24;;;;;;;10.38;8.05;;;3.80;79.30;;;;;;5073839;28;20870;-88
2022/03/13 08:49:52;;;;;;;11.55;8.18;;;3.90;79.30;;;;;;5074809;28;20240;-87
2022/03/13 08:52:22;;;;;;;11.35;7.38;;;4.00;79.10;;;;;;5070783;28;20197;-83
2022/03/13 08:54:50;;;;;;;8.40;6.90;;;4.10;79.20;;;;;;5079267;28;20269;-86
2022/03/13 08:57:18;;;;;;;9.23;8.10;;;4.20;79.30;;;;;;5074715;28;20708;-86
2022/03/13 08:59:46;;;;;;;8.02;7.22;;;4.20;79.20;;;;;;5081477;28;20208;-88
2022/03/13 09:02:15;;;;;;;10.35;7.60;;;4.40;79.10;;;;;;5079925;28;20209;-86
2022/03/13 09:04:43;;;;;;;8.98;6.80;;;4.50;79.40;;;;;;5078199;28;20391;-91
2022/03/13 09:07:13;;;;;;;10.15;7.20;;;4.60;78.80;;;;;;5073607;28;20610;-87
2022/03/13 09:09:43;;;;;;;9.88;7.13;;;4.60;79.20;;;;;;5071653;28;20225;-87
2022/03/13 09:12:12;;;;;;;12.18;7.50;;;4.70;79.40;;;;;;5074361;28;20205;-86
2022/03/13 09:14:40;;;;;;;10.48;7.85;;;4.80;78.70;;;;;;5071732;28;20201;-84
2022/03/13 09:17:08;;;;;;;12.00;8.10;;;4.90;80.80;;;;;;5068939;28;20227;-84
2022/03/13 09:19:36;;;;;;;10.50;7.85;;;5.00;84.80;;;;;;5069112;28;20209;-85
2022/03/13 09:22:04;;;;;;;9.15;7.32;;;5.10;80.30;;;;;;5068174;28;20288;-85
2022/03/13 09:24:32;;;;;;;9.00;7.30;;;5.20;79.20;;;;;;5067370;28;20796;-82
2022/03/13 09:27:01;;;;;;;8.40;7.13;;;5.30;79.80;;;;;;5067683;28;20223;-86
2022/03/13 09:29:29;;;;;;;9.93;8.07;;;5.30;80.20;;;;;;5081474;28;20216;-85
2022/03/13 09:31:57;;;;;;;8.75;7.85;;;5.40;81.10;;;;;;5085583;28;20803;-86
2022/03/13 09:34:25;;;;;;;10.43;7.70;;;5.50;79.50;;;;;;5085383;28;20195;-86
2022/03/13 09:36:53;;;;;;;9.63;7.78;;;5.60;79.20;;;;;;5087491;28;20376;-85
2022/03/13 09:39:21;;;;;;;11.60;8.02;;;5.80;78.70;;;;;;5087084;28;20825;-85
2022/03/13 09:41:50;;;;;;;10.98;7.50;;;5.90;78.00;;;;;;5090881;28;20200;-85
2022/03/13 09:44:19;;;;;;;12.93;9.05;;;5.90;76.70;;;;;;5096517;28;20822;-88
2022/03/13 09:46:47;;;;;;;9.23;7.63;;;5.90;76.80;;;;;;5087745;28;20221;-85
2022/03/13 09:49:17;;;;;;;8.82;6.93;;;6.00;77.20;;;;;;5090379;28;20499;-84
2022/03/13 09:51:45;;;;;;;8.60;7.00;;;6.10;77.40;;;;;;5090780;28;20837;-87
2022/03/13 09:54:13;;;;;;;8.80;7.05;;;6.20;76.90;;;;;;5090526;28;20674;-85
2022/03/13 09:56:41;;;;;;;10.73;7.45;;;6.20;77.10;;;;;;5092233;28;20232;-85
2022/03/13 09:59:09;;;;;;;8.05;6.75;;;6.30;77.40;;;;;;5091304;28;20279;-84
2022/03/13 10:01:38;;;;;;;11.82;7.95;;;6.30;77.40;;;;;;5091412;28;20228;-87
2022/03/13 10:04:06;;;;;;;9.25;7.38;;;6.40;78.10;;;;;;5094531;28;20196;-86
2022/03/13 10:07:06;;;;;;;9.30;7.30;;;6.50;76.90;;;;;;5096249;28;20248;-87
2022/03/13 10:09:35;;;;;;;8.80;7.30;;;6.60;77.20;;;;;;5089595;28;20220;-85
2022/03/13 10:12:06;;;;;;;8.15;7.30;;;6.60;77.20;;;;;;5087968;28;20831;-83
2022/03/13 10:14:34;;;;;;;9.38;7.65;;;6.70;76.70;;;;;;5089048;28;20187;-84
2022/03/13 10:17:05;;;;;;;8.27;7.10;;;6.80;76.50;;;;;;5087941;28;20823;-84
2022/03/13 10:19:33;;;;;;;7.65;6.70;;;6.90;77.00;;;;;;5089479;28;20189;-84
2022/03/13 10:22:03;;;;;;;10.40;8.10;;;6.90;76.60;;;;;;5088179;28;20227;-84
2022/03/13 10:24:40;;;;;;;8.93;7.57;;;7.00;76.70;;;;;;5088992;28;20242;-84
2022/03/13 10:27:15;;;;;;;8.10;7.05;;;7.10;77.10;;;;;;5087257;28;20226;-84
2022/03/13 10:29:45;;;;;;;11.10;7.45;;;7.20;77.80;;;;;;5089034;28;20211;-83
2022/03/13 10:32:14;;;;;;;9.30;6.95;;;7.20;77.50;;;;;;5088410;28;20201;-86
2022/03/13 10:34:54;;;;;;;9.15;8.25;;;7.30;78.50;;;;;;5087969;28;20196;-85
2022/03/13 10:37:34;;;;;;;11.07;8.25;;;7.40;77.70;;;;;;5088566;28;20220;-85
2022/03/13 10:40:08;;;;;;;7.97;7.22;;;7.50;76.80;;;;;;5087480;28;20198;-85
2022/03/13 10:42:43;;;;;;;7.78;6.85;;;7.60;76.40;;;;;;5089011;28;20210;-86
2022/03/13 10:45:33;;;;;;;7.85;7.00;;;7.60;78.00;;;;;;5089065;28;20207;-86
2022/03/13 10:48:20;;;;;;;8.23;7.35;;;7.70;76.60;;;;;;5088899;28;20196;-87
2022/03/13 10:50:50;;;;;;;8.32;7.38;;;7.70;76.40;;;;;;5087281;28;20200;-86
2022/03/13 10:53:19;;;;;;;10.15;7.32;;;7.80;76.10;;;;;;5088419;28;20187;-87
2022/03/13 10:56:04;;;;;;;9.32;7.90;;;7.90;76.50;;;;;;5087163;28;20254;-85
2022/03/13 10:58:35;;;;;;;8.93;7.43;;;7.90;76.90;;;;;;5088753;28;20282;-84
2022/03/13 11:01:05;;;;;;;11.75;6.95;;;7.90;77.20;;;;;;5087887;28;20413;-86
2022/03/13 11:03:37;;;;;;;10.75;7.60;;;8.00;76.50;;;;;;5088462;28;20212;-84
2022/03/13 11:06:06;;;;;;;7.82;7.18;;;8.10;77.00;;;;;;5086031;28;20274;-84
2022/03/13 11:08:33;;;;;;;8.35;7.45;;;8.20;77.60;;;;;;5090123;28;20215;-86
2022/03/13 11:11:02;;;;;;;11.90;8.20;;;8.30;76.70;;;;;;5091637;28;20257;-85
2022/03/13 11:13:34;;;;;;;10.40;7.97;;;8.40;76.90;;;;;;5093598;28;20245;-85
2022/03/13 11:16:06;;;;;;;12.27;8.50;;;8.50;76.80;;;;;;5088280;28;20821;-86
2022/03/13 11:18:37;;;;;;;8.85;8.00;;;8.50;77.40;;;;;;5095521;28;20260;-87
2022/03/13 11:21:07;;;;;;;10.60;7.68;;;8.60;77.20;;;;;;5095194;28;20184;-85
2022/03/13 11:23:36;;;;;;;8.82;7.90;;;8.70;77.10;;;;;;5093713;28;20204;-85
2022/03/13 11:26:06;;;;;;;9.98;8.43;;;8.70;77.60;;;;;;5088158;28;20727;-85
2022/03/13 11:28:35;;;;;;;10.50;8.38;;;8.80;77.20;;;;;;5087661;28;20338;-86
2022/03/13 11:31:03;;;;;;;9.52;7.55;;;8.80;77.50;;;;;;5087482;28;20252;-84
2022/03/13 11:33:34;;;;;;;8.20;7.38;;;8.80;77.10;;;;;;5087229;28;20196;-85
2022/03/13 11:36:32;;;;;;;8.63;7.45;;;8.90;76.70;;;;;;5088395;28;20230;-84
2022/03/13 11:39:01;;;;;;;11.20;7.50;;;9.00;76.30;;;;;;5075083;28;20216;-84
2022/03/13 11:41:37;;;;;;;10.65;7.97;;;9.00;76.30;;;;;;5085884;28;20224;-84
2022/03/13 11:44:17;;;;;;;8.68;7.45;;;9.00;76.10;;;;;;5087540;28;20204;-84
2022/03/13 11:46:46;;;;;;;8.85;7.63;;;9.10;76.00;;;;;;5087545;28;20302;-84
2022/03/13 11:49:18;;;;;;;12.18;7.95;;;9.10;75.20;;;;;;5088594;28;20240;-85
2022/03/13 11:51:47;;;;;;;8.82;7.45;;;9.10;74.70;;;;;;5089976;28;20288;-87
2022/03/13 11:54:35;;;;;;;11.18;9.15;;;9.10;75.30;;;;;;5093895;28;20203;-86
2022/03/13 11:57:13;;;;;;;8.02;7.18;;;9.20;76.20;;;;;;5087603;28;20235;-83
2022/03/13 11:59:42;;;;;;;12.80;8.70;;;9.20;76.30;;;;;;5091683;28;20378;-84
2022/03/13 12:02:13;;;;;;;8.60;7.45;;;9.20;75.70;;;;;;5093188;28;20276;-85
2022/03/13 12:04:42;;;;;;;9.05;7.50;;;9.30;76.30;;;;;;5094275;28;20291;-85
2022/03/13 12:07:27;;;;;;;10.27;8.45;;;9.40;75.90;;;;;;5093543;28;20216;-82
2022/03/13 12:09:55;;;;;;;8.48;7.60;;;9.40;75.60;;;;;;5099983;28;20212;-84
2022/03/13 12:12:23;;;;;;;8.32;7.53;;;9.40;75.60;;;;;;5099797;28;20243;-83
2022/03/13 12:15:02;;;;;;;8.05;7.18;;;9.50;75.50;;;;;;5089401;28;20226;-85
2022/03/13 12:17:31;;;;;;;8.80;7.47;;;9.60;75.70;;;;;;5103042;28;20874;-87
2022/03/13 12:20:02;;;;;;;7.95;7.15;;;9.60;75.30;;;;;;5094389;28;20211;-83
2022/03/13 12:22:31;;;;;;;9.77;7.40;;;9.60;75.80;;;;;;5089958;28;20212;-86
2022/03/13 12:25:01;;;;;;;7.95;7.15;;;9.70;75.80;;;;;;5091354;28;20224;-85
2022/03/13 12:27:29;;;;;;;9.90;7.57;;;9.70;75.10;;;;;;5090399;28;20220;-86
2022/03/13 12:29:59;;;;;;;8.93;7.40;;;9.70;75.30;;;;;;5090715;28;20325;-83
2022/03/13 12:32:31;;;;;;;9.30;7.85;;;9.70;75.00;;;;;;5091130;28;20238;-85
2022/03/13 12:35:00;;;;;;;8.40;7.60;;;9.70;74.20;;;;;;5090595;28;20208;-86
2022/03/13 12:37:28;;;;;;;9.77;6.80;;;9.70;74.40;;;;;;5090874;28;20735;-85
2022/03/13 12:40:00;;;;;;;8.60;7.68;;;9.80;75.00;;;;;;5086823;28;20192;-85
2022/03/13 12:42:33;;;;;;;11.70;8.02;;;9.90;74.50;;;;;;5081514;28;20201;-83
2022/03/13 12:45:08;;;;;;;7.40;6.70;;;9.90;74.10;;;;;;5085097;28;20239;-85
2022/03/13 12:47:40;;;;;;;7.85;6.43;;;10.00;73.20;;;;;;5086300;28;20245;-85
2022/03/13 12:50:12;;;;;;;10.70;8.15;;;10.00;72.40;;;;;;5077439;28;20217;-85
2022/03/13 12:52:42;;;;;;;8.57;7.00;;;10.00;72.30;;;;;;5070043;28;20702;-84
2022/03/13 12:55:13;;;;;;;9.85;6.68;;;10.10;72.70;;;;;;5069463;28;20201;-83
2022/03/13 12:57:53;;;;;;;7.40;6.70;;;10.10;72.80;;;;;;5069470;28;20185;-83
2022/03/13 13:00:31;;;;;;;6.50;5.90;;;10.20;71.30;;;;;;5070104;28;20757;-83
2022/03/13 13:03:00;;;;;;;7.35;6.65;;;10.20;71.70;;;;;;5070120;28;20216;-83
2022/03/13 13:05:28;;;;;;;6.72;6.05;;;10.20;71.60;;;;;;5069276;28;20449;-82